Belleville Municipal Airport


Codes: KRPB/
Name: Belleville Municipal Airport
City: Belleville
Country: United States
Elevation: 1537 ft.

Photos at Belleville Municipal Airport


   Photos courtesy of SpottingLog. You can add your own sightings and photos by signing up for a free trial today.



No photos found.

Weather at Belleville Municipal Airport


Time (UTC)DescriptionTempratureWindCloud coverageVisibilityPressureHumidity
16-Jun-2024 03:00Light Rain27°C16 mph, S83%10000m1004hPa56%
16-Jun-2024 06:00Overcast Clouds24°C11 mph, S92%10000m1005hPa64%
16-Jun-2024 09:00Scattered Clouds20°C11 mph, S28%10000m1006hPa82%
16-Jun-2024 12:00Few Clouds22°C16 mph, S15%10000m1006hPa79%
16-Jun-2024 15:00Clear Sky27°C18 mph, SW3%10000m1006hPa65%
16-Jun-2024 18:00Clear Sky32°C16 mph, SW3%10000m1005hPa48%
16-Jun-2024 21:00Clear Sky35°C18 mph, S0%10000m1003hPa40%
17-Jun-2024 00:00Clear Sky33°C16 mph, S0%10000m1002hPa46%
17-Jun-2024 03:00Clear Sky28°C22 mph, S5%10000m1004hPa64%
17-Jun-2024 06:00Few Clouds26°C20 mph, S21%10000m1005hPa65%
17-Jun-2024 09:00Broken Clouds25°C20 mph, S70%10000m1005hPa64%
17-Jun-2024 12:00Broken Clouds24°C18 mph, S83%10000m1005hPa70%
17-Jun-2024 15:00Broken Clouds27°C22 mph, S53%10000m1004hPa62%
17-Jun-2024 18:00Broken Clouds31°C25 mph, S77%10000m1003hPa49%
17-Jun-2024 21:00Overcast Clouds33°C22 mph, S95%10000m1001hPa45%
18-Jun-2024 00:00Overcast Clouds32°C25 mph, S93%10000m1000hPa47%
18-Jun-2024 03:00Clear Sky27°C27 mph, S2%10000m1002hPa60%
18-Jun-2024 06:00Clear Sky26°C25 mph, S1%10000m1002hPa71%
18-Jun-2024 09:00Clear Sky25°C25 mph, S0%10000m1002hPa76%
18-Jun-2024 12:00Clear Sky24°C22 mph, S1%10000m1003hPa77%
18-Jun-2024 15:00Scattered Clouds27°C25 mph, S30%10000m1004hPa68%
18-Jun-2024 18:00Broken Clouds29°C18 mph, S60%10000m1005hPa59%
18-Jun-2024 21:00Overcast Clouds31°C18 mph, S100%10000m1004hPa54%
19-Jun-2024 00:00Light Rain26°C9 mph, N90%9128m1005hPa70%
19-Jun-2024 03:00Heavy Intensity Rain18°C9 mph, N100%7469m1013hPa97%
19-Jun-2024 06:00Light Rain18°C13 mph, NE100%10000m1016hPa94%
19-Jun-2024 09:00Moderate Rain16°C18 mph, NE100%10000m1015hPa95%
19-Jun-2024 12:00Moderate Rain16°C13 mph, NE100%10000m1018hPa96%
19-Jun-2024 15:00Light Rain18°C13 mph, NE100%3040m1019hPa97%
19-Jun-2024 18:00Light Rain19°C11 mph, NE100%10000m1021hPa90%
19-Jun-2024 21:00Light Rain20°C13 mph, NE100%10000m1020hPa86%
20-Jun-2024 00:00Light Rain19°C13 mph, NE100%10000m1020hPa90%
20-Jun-2024 03:00Overcast Clouds18°C11 mph, E100%10000m1022hPa93%
20-Jun-2024 06:00Overcast Clouds18°C9 mph, E100%10000m1022hPa93%
20-Jun-2024 09:00Light Rain19°C9 mph, E96%10000m1021hPa98%
20-Jun-2024 12:00Overcast Clouds20°C7 mph, SE87%10000m1022hPa97%
20-Jun-2024 15:00Scattered Clouds25°C13 mph, S36%10000m1022hPa78%
20-Jun-2024 18:00Broken Clouds28°C13 mph, S71%10000m1021hPa62%
20-Jun-2024 21:00Light Rain26°C13 mph, S100%10000m1020hPa70%
21-Jun-2024 00:00Overcast Clouds26°C13 mph, S88%10000m1018hPa70%